createdAt,value
2018-12-27T00:00:35.419Z,15.93
2018-12-27T00:01:14.168Z,14.07
2018-12-27T00:01:53.455Z,13.90
2018-12-27T00:02:32.181Z,13.40
2018-12-27T00:03:10.894Z,13.05
2018-12-27T00:03:50.085Z,13.30
2018-12-27T00:04:29.431Z,11.70
2018-12-27T00:05:08.631Z,13.32
2018-12-27T00:05:47.370Z,13.35
2018-12-27T00:06:26.723Z,12.88
2018-12-27T00:07:06.033Z,14.00
2018-12-27T00:07:44.721Z,13.65
2018-12-27T00:08:24.226Z,14.43
2018-12-27T00:09:02.964Z,13.18
2018-12-27T00:09:41.669Z,13.25
2018-12-27T00:10:20.497Z,13.18
2018-12-27T00:10:59.854Z,12.47
2018-12-27T00:11:39.201Z,12.73
2018-12-27T00:12:18.709Z,13.60
2018-12-27T00:12:57.783Z,12.30
2018-12-27T00:13:37.199Z,12.33
2018-12-27T00:14:15.869Z,13.32
2018-12-27T00:14:54.693Z,13.65
2018-12-27T00:15:33.884Z,13.08
2018-12-27T00:16:12.691Z,12.68
2018-12-27T00:16:51.691Z,13.53
2018-12-27T00:17:30.674Z,12.90
2018-12-27T00:18:09.534Z,12.47
2018-12-27T00:18:48.293Z,15.32
2018-12-27T00:19:27.660Z,13.22
2018-12-27T00:20:06.780Z,13.40
2018-12-27T00:20:46.277Z,14.70
2018-12-27T00:21:25.278Z,14.13
2018-12-27T00:22:04.047Z,12.50
2018-12-27T00:22:42.744Z,14.27
2018-12-27T00:23:21.658Z,14.43
2018-12-27T00:24:00.583Z,13.35
2018-12-27T00:24:40.748Z,13.73
2018-12-27T00:25:20.548Z,13.48
2018-12-27T00:26:02.159Z,13.75
2018-12-27T00:26:41.354Z,13.27
2018-12-27T00:27:20.901Z,14.28
2018-12-27T00:27:59.980Z,13.15
2018-12-27T00:28:38.801Z,12.60
2018-12-27T00:29:18.252Z,12.75
2018-12-27T00:29:56.995Z,11.60
2018-12-27T00:30:36.054Z,12.60
2018-12-27T00:31:15.657Z,12.25
2018-12-27T00:31:54.809Z,12.50
2018-12-27T00:32:33.971Z,13.22
2018-12-27T00:33:13.172Z,12.50
2018-12-27T00:33:52.816Z,12.70
2018-12-27T00:34:32.316Z,13.30
2018-12-27T00:35:11.957Z,12.95
2018-12-27T00:35:51.775Z,13.55
2018-12-27T00:36:31.030Z,12.95
2018-12-27T00:37:10.859Z,12.55
2018-12-27T00:37:50.218Z,13.32
2018-12-27T00:38:29.808Z,12.47
2018-12-27T00:39:09.635Z,12.75
2018-12-27T00:39:49.398Z,12.13
2018-12-27T00:40:29.105Z,11.78
2018-12-27T00:41:09.416Z,11.88
2018-12-27T00:41:49.095Z,12.15
2018-12-27T00:42:28.194Z,11.60
2018-12-27T00:43:07.837Z,12.70
2018-12-27T00:43:46.994Z,13.95
2018-12-27T00:44:26.072Z,12.65
2018-12-27T00:45:05.777Z,12.98
2018-12-27T00:45:45.414Z,13.58
2018-12-27T00:46:24.485Z,13.43
2018-12-27T00:47:04.105Z,12.37
2018-12-27T00:47:43.501Z,12.53
2018-12-27T00:48:22.872Z,13.53
2018-12-27T00:49:02.577Z,11.73
2018-12-27T00:49:41.799Z,12.58
2018-12-27T00:50:21.452Z,12.13
2018-12-27T00:51:01.139Z,12.70
2018-12-27T00:51:42.252Z,12.23
2018-12-27T00:52:21.974Z,11.93
2018-12-27T00:53:01.143Z,12.00
2018-12-27T00:53:40.941Z,12.30
2018-12-27T00:54:20.689Z,12.78
2018-12-27T00:55:00.332Z,12.13
2018-12-27T00:55:39.520Z,12.95
2018-12-27T00:56:19.217Z,11.20
2018-12-27T00:56:58.561Z,12.05
2018-12-27T00:57:37.741Z,12.20
2018-12-27T00:58:17.547Z,12.53
2018-12-27T00:58:56.767Z,12.98
2018-12-27T00:59:35.814Z,12.65
2018-12-27T01:00:15.045Z,12.18
2018-12-27T01:00:54.724Z,12.10
2018-12-27T01:01:33.753Z,12.70
2018-12-27T01:02:13.176Z,12.68
2018-12-27T01:02:52.298Z,11.90
2018-12-27T01:03:33.717Z,12.07
2018-12-27T01:04:13.373Z,11.83
2018-12-27T01:04:53.124Z,12.68
2018-12-27T01:05:32.837Z,12.55
2018-12-27T01:06:13.239Z,12.30
2018-12-27T01:06:56.058Z,10.85
2018-12-27T01:07:36.081Z,11.90
2018-12-27T01:08:15.127Z,11.20
2018-12-27T01:08:54.200Z,12.95
2018-12-27T01:09:33.621Z,11.70
2018-12-27T01:10:13.088Z,12.15
2018-12-27T01:10:55.513Z,11.12
2018-12-27T01:11:35.143Z,12.30
2018-12-27T01:12:15.212Z,12.00
2018-12-27T01:12:54.838Z,13.43
2018-12-27T01:13:34.219Z,12.73
2018-12-27T01:14:13.655Z,12.73
2018-12-27T01:14:53.368Z,13.85
2018-12-27T01:15:32.856Z,12.40
2018-12-27T01:16:12.399Z,14.10
2018-12-27T01:16:52.049Z,12.58
2018-12-27T01:17:31.521Z,13.65
2018-12-27T01:18:11.201Z,13.10
2018-12-27T01:18:50.384Z,12.68
2018-12-27T01:19:30.038Z,12.25
2018-12-27T01:20:09.115Z,12.10
2018-12-27T01:20:48.353Z,12.90
2018-12-27T01:21:27.398Z,14.38
2018-12-27T01:22:06.364Z,13.10
2018-12-27T01:22:45.457Z,14.28
2018-12-27T01:23:25.141Z,12.95
2018-12-27T01:24:04.203Z,14.28
2018-12-27T01:24:43.887Z,13.55
2018-12-27T01:25:23.525Z,14.53
2018-12-27T01:26:02.856Z,12.88
2018-12-27T01:26:42.559Z,15.00
2018-12-27T01:27:22.241Z,15.15
2018-12-27T01:28:01.374Z,14.33
2018-12-27T01:28:40.448Z,14.20
2018-12-27T01:29:19.785Z,15.05
2018-12-27T01:29:58.911Z,15.90
2018-12-27T01:30:38.408Z,15.00
2018-12-27T01:31:17.369Z,16.05
2018-12-27T01:31:57.085Z,16.82
2018-12-27T01:32:37.808Z,15.72
2018-12-27T01:33:18.895Z,15.48
2018-12-27T01:34:00.393Z,14.98
2018-12-27T01:34:39.831Z,13.90
2018-12-27T01:35:19.095Z,13.50
2018-12-27T01:35:58.880Z,14.73
2018-12-27T01:36:38.500Z,16.63
2018-12-27T01:37:18.001Z,14.70
2018-12-27T01:37:57.247Z,14.75
2018-12-27T01:38:36.628Z,15.15
2018-12-27T01:39:16.452Z,14.35
2018-12-27T01:39:56.250Z,15.05
2018-12-27T01:40:35.403Z,16.20
2018-12-27T01:41:14.699Z,15.38
2018-12-27T01:41:54.439Z,16.00
2018-12-27T01:42:33.789Z,14.93
2018-12-27T01:43:13.938Z,14.58
2018-12-27T01:43:54.669Z,15.58
2018-12-27T01:44:34.559Z,16.75
2018-12-27T01:45:15.416Z,15.20
2018-12-27T01:45:54.718Z,15.43
2018-12-27T01:46:34.374Z,16.05
2018-12-27T01:47:13.365Z,16.67
2018-12-27T01:47:52.495Z,15.43
2018-12-27T01:48:31.451Z,16.23
2018-12-27T01:49:10.665Z,15.45
2018-12-27T01:49:49.970Z,17.12
2018-12-27T01:50:29.371Z,15.48
2018-12-27T01:51:08.462Z,16.48
2018-12-27T01:51:48.096Z,17.15
2018-12-27T01:52:27.702Z,16.00
2018-12-27T01:53:07.116Z,19.35
2018-12-27T01:53:46.713Z,18.37
2018-12-27T01:54:26.337Z,17.45
2018-12-27T01:55:08.127Z,16.80
2018-12-27T01:56:32.149Z,21.52
2018-12-27T01:57:11.177Z,19.48
2018-12-27T01:57:50.224Z,20.72
2018-12-27T01:58:29.607Z,23.12
2018-12-27T01:59:08.911Z,20.80
2018-12-27T01:59:48.019Z,21.48
2018-12-27T02:00:27.786Z,21.77
2018-12-27T02:01:07.310Z,18.25
2018-12-27T02:01:46.842Z,19.52
2018-12-27T02:02:25.961Z,18.87
2018-12-27T02:03:05.530Z,20.27
2018-12-27T02:03:45.831Z,21.33
2018-12-27T02:04:25.346Z,20.62
2018-12-27T02:05:04.314Z,19.35
2018-12-27T02:05:43.339Z,20.95
2018-12-27T02:06:22.469Z,21.00
2018-12-27T02:07:01.599Z,22.40
2018-12-27T02:07:41.021Z,21.68
2018-12-27T02:08:20.382Z,21.77
2018-12-27T02:08:59.947Z,22.45
2018-12-27T02:09:39.446Z,22.98
2018-12-27T02:10:19.157Z,23.10
2018-12-27T02:10:58.606Z,22.05
2018-12-27T02:11:38.260Z,21.15
2018-12-27T02:12:17.671Z,20.17
2018-12-27T02:12:57.258Z,21.95
2018-12-27T02:13:36.978Z,23.55
2018-12-27T02:14:17.137Z,21.70
2018-12-27T02:14:56.343Z,23.87
2018-12-27T02:15:36.031Z,22.02
2018-12-27T02:16:15.323Z,22.37
2018-12-27T02:16:55.049Z,22.87
2018-12-27T02:17:34.166Z,22.05
2018-12-27T02:18:13.252Z,20.60
2018-12-27T02:18:52.480Z,21.95
2018-12-27T02:19:31.751Z,20.70
2018-12-27T02:20:10.879Z,22.13
2018-12-27T02:20:50.619Z,21.33
2018-12-27T02:21:30.559Z,20.85
2018-12-27T02:22:10.030Z,21.52
2018-12-27T02:22:49.849Z,21.75
2018-12-27T02:23:31.264Z,21.15
2018-12-27T02:24:10.920Z,20.90
2018-12-27T02:24:50.439Z,21.87
2018-12-27T02:25:33.462Z,23.95
2018-12-27T02:26:12.598Z,21.57
2018-12-27T02:26:51.858Z,24.00
2018-12-27T02:27:31.174Z,22.85
2018-12-27T02:28:10.518Z,22.52
2018-12-27T02:28:50.635Z,23.42
2018-12-27T02:29:30.698Z,25.50
2018-12-27T02:30:10.404Z,23.60
2018-12-27T02:30:51.171Z,26.62
2018-12-27T02:31:31.034Z,25.77
2018-12-27T02:32:10.837Z,24.82
2018-12-27T02:32:51.062Z,25.12
2018-12-27T02:33:35.239Z,26.75
2018-12-27T02:34:11.482Z,24.25
2018-12-27T02:34:50.844Z,23.47
2018-12-27T02:35:30.437Z,28.32
2018-12-27T02:36:09.938Z,28.07
2018-12-27T02:36:50.449Z,25.88
2018-12-27T02:37:30.349Z,25.00
2018-12-27T02:38:10.086Z,25.30
2018-12-27T02:38:49.495Z,25.52
2018-12-27T02:39:28.968Z,24.45
2018-12-27T02:40:08.521Z,26.20
2018-12-27T02:40:48.314Z,25.80
2018-12-27T02:41:27.554Z,28.55
2018-12-27T02:42:06.653Z,27.40
2018-12-27T02:42:45.793Z,26.00
2018-12-27T02:43:24.853Z,28.42
2018-12-27T02:44:04.049Z,27.45
2018-12-27T02:44:43.274Z,27.75
2018-12-27T02:45:22.565Z,29.05
2018-12-27T02:46:02.252Z,27.52
2018-12-27T02:46:41.692Z,28.70
2018-12-27T02:47:21.389Z,31.15
2018-12-27T02:48:04.127Z,29.90
2018-12-27T02:48:43.421Z,30.82
2018-12-27T02:49:22.806Z,31.33
2018-12-27T02:50:02.266Z,28.83
2018-12-27T02:50:41.617Z,30.90
2018-12-27T02:51:23.846Z,28.35
2018-12-27T02:52:06.304Z,29.30
2018-12-27T02:52:45.897Z,31.10
2018-12-27T02:53:27.200Z,31.37
2018-12-27T02:54:06.857Z,31.25
2018-12-27T02:54:46.542Z,30.52
2018-12-27T02:55:26.547Z,29.75
2018-12-27T02:56:06.847Z,31.37
2018-12-27T02:56:46.429Z,30.75
2018-12-27T02:57:26.129Z,28.40
2018-12-27T02:58:06.061Z,27.98
2018-12-27T02:58:45.394Z,28.43
2018-12-27T02:59:25.427Z,32.20
2018-12-27T03:00:07.502Z,32.80
2018-12-27T03:00:47.060Z,33.40
2018-12-27T03:01:26.317Z,30.90
2018-12-27T03:02:05.746Z,32.00
2018-12-27T03:02:45.337Z,32.17
2018-12-27T03:03:25.149Z,31.30
2018-12-27T03:04:04.770Z,31.82
2018-12-27T03:04:44.243Z,30.57
2018-12-27T03:05:24.438Z,32.50
2018-12-27T03:06:03.537Z,32.33
2018-12-27T03:06:42.659Z,33.40
2018-12-27T03:07:22.264Z,32.93
2018-12-27T03:08:01.804Z,33.80
2018-12-27T03:08:40.953Z,36.20
2018-12-27T03:09:20.174Z,34.95
2018-12-27T03:10:00.557Z,35.13
2018-12-27T03:10:40.154Z,33.78
2018-12-27T03:11:19.263Z,35.65
2018-12-27T03:11:59.078Z,35.50
2018-12-27T03:12:38.207Z,34.20
2018-12-27T03:13:17.376Z,34.27
2018-12-27T03:13:56.483Z,34.40
2018-12-27T03:14:35.800Z,34.03
2018-12-27T03:15:14.912Z,36.13
2018-12-27T03:15:56.652Z,33.53
2018-12-27T03:16:35.958Z,34.77
2018-12-27T03:17:15.336Z,35.08
2018-12-27T03:17:55.018Z,38.20
2018-12-27T03:18:34.684Z,36.80
2018-12-27T03:19:14.222Z,34.75
2018-12-27T03:19:53.673Z,35.95
2018-12-27T03:20:33.304Z,32.73
2018-12-27T03:21:12.978Z,35.08
2018-12-27T03:21:52.208Z,35.75
2018-12-27T03:22:32.125Z,33.83
2018-12-27T03:23:11.924Z,35.08
2018-12-27T03:23:50.917Z,35.13
2018-12-27T03:24:30.136Z,35.48
2018-12-27T03:25:13.419Z,35.40
2018-12-27T03:25:53.011Z,35.58
2018-12-27T03:26:32.463Z,35.55
2018-12-27T03:27:14.610Z,35.70
2018-12-27T03:27:53.724Z,33.45
2018-12-27T03:28:33.625Z,36.40
2018-12-27T03:29:13.467Z,35.23
2018-12-27T03:29:52.938Z,36.50
2018-12-27T03:30:32.810Z,35.00
2018-12-27T03:31:12.315Z,35.63
2018-12-27T03:31:52.145Z,34.45
2018-12-27T03:32:31.938Z,33.15
2018-12-27T03:33:13.518Z,34.33
2018-12-27T03:33:54.042Z,33.65
2018-12-27T03:34:33.673Z,33.50
2018-12-27T03:35:13.294Z,35.08
2018-12-27T03:35:53.046Z,35.20
2018-12-27T03:36:32.158Z,32.60
2018-12-27T03:37:11.918Z,34.30
2018-12-27T03:37:51.134Z,31.15
2018-12-27T03:38:30.217Z,32.78
2018-12-27T03:39:10.178Z,31.60
2018-12-27T03:39:49.891Z,31.87
2018-12-27T03:40:29.666Z,31.35
2018-12-27T03:41:08.807Z,29.23
2018-12-27T03:41:47.926Z,31.35
2018-12-27T03:42:27.011Z,31.48
2018-12-27T03:43:06.632Z,31.42
2018-12-27T03:43:46.488Z,29.12
2018-12-27T03:44:27.088Z,29.65
2018-12-27T03:45:06.326Z,29.77
2018-12-27T03:45:46.150Z,30.95
2018-12-27T03:46:25.848Z,30.08
2018-12-27T03:47:05.192Z,30.30
2018-12-27T03:47:44.923Z,29.70
2018-12-27T03:48:24.548Z,29.48
2018-12-27T03:49:04.408Z,29.10
2018-12-27T03:49:44.079Z,28.42
2018-12-27T03:50:23.761Z,28.15
2018-12-27T03:51:02.882Z,28.80
2018-12-27T03:51:42.215Z,27.40
2018-12-27T03:52:21.738Z,25.80
2018-12-27T03:53:00.838Z,26.30
2018-12-27T03:53:39.920Z,26.95
2018-12-27T03:54:19.004Z,27.65
2018-12-27T03:54:58.061Z,26.05
2018-12-27T03:55:37.801Z,26.20
2018-12-27T03:56:17.050Z,26.00
2018-12-27T03:56:56.441Z,24.65
2018-12-27T03:57:36.406Z,25.72
2018-12-27T03:58:16.110Z,25.12
2018-12-27T03:58:55.760Z,24.75
2018-12-27T03:59:38.098Z,24.80
2018-12-27T04:00:17.104Z,23.67
2018-12-27T04:01:15.591Z,22.80
2018-12-27T04:01:55.146Z,23.73
2018-12-27T04:02:34.913Z,23.32
2018-12-27T04:03:14.082Z,23.30
2018-12-27T04:04:01.070Z,23.07
2018-12-27T04:04:34.845Z,22.62
2018-12-27T04:05:14.553Z,23.77
2018-12-27T04:05:53.859Z,22.95
2018-12-27T04:06:33.567Z,21.95
2018-12-27T04:07:13.224Z,22.22
2018-12-27T04:07:52.299Z,21.90
2018-12-27T04:08:31.451Z,22.32
2018-12-27T04:09:11.796Z,20.15
2018-12-27T04:09:50.915Z,20.90
2018-12-27T04:10:30.268Z,22.90
2018-12-27T04:11:09.739Z,21.23
2018-12-27T04:11:49.247Z,20.17
2018-12-27T04:12:28.683Z,22.62
2018-12-27T04:13:08.344Z,21.27
2018-12-27T04:13:47.825Z,21.17
2018-12-27T04:14:27.424Z,20.68
2018-12-27T04:15:09.675Z,22.35
2018-12-27T04:15:48.458Z,20.00
2018-12-27T04:16:27.682Z,20.55
2018-12-27T04:17:07.508Z,19.92
2018-12-27T04:17:46.945Z,19.70
2018-12-27T04:18:27.246Z,18.73
2018-12-27T04:19:07.070Z,18.30
2018-12-27T04:19:47.024Z,20.10
2018-12-27T04:20:26.598Z,19.02
2018-12-27T04:21:05.752Z,19.67
2018-12-27T04:21:44.665Z,19.37
2018-12-27T04:22:23.384Z,18.82
2018-12-27T04:23:02.227Z,21.00
2018-12-27T04:23:41.203Z,20.10
2018-12-27T04:24:21.490Z,20.15
2018-12-27T04:25:00.305Z,20.70
2018-12-27T04:25:39.595Z,20.08
2018-12-27T04:26:19.062Z,20.62
2018-12-27T04:26:58.767Z,21.70
2018-12-27T04:27:38.310Z,20.65
2018-12-27T04:28:17.144Z,22.40
2018-12-27T04:28:55.883Z,20.95
2018-12-27T04:29:35.484Z,21.48
2018-12-27T04:30:15.097Z,21.45
2018-12-27T04:30:53.896Z,20.60
2018-12-27T04:31:32.671Z,20.60
2018-12-27T04:32:11.473Z,19.35
2018-12-27T04:32:50.664Z,18.77
2018-12-27T04:33:30.001Z,18.25
2018-12-27T04:34:09.571Z,18.65
2018-12-27T04:34:48.879Z,18.02
2018-12-27T04:35:28.319Z,17.73
2018-12-27T04:36:07.000Z,17.92
2018-12-27T04:36:46.178Z,17.27
2018-12-27T04:37:25.326Z,17.00
2018-12-27T04:38:07.193Z,18.45
2018-12-27T04:38:45.984Z,17.12
2018-12-27T04:39:24.803Z,18.45
2018-12-27T04:40:03.548Z,17.42
2018-12-27T04:40:42.605Z,17.67
2018-12-27T04:41:24.490Z,17.57
2018-12-27T04:42:03.366Z,16.23
2018-12-27T04:42:44.994Z,14.13
2018-12-27T04:43:23.825Z,14.78
2018-12-27T04:44:02.625Z,15.50
2018-12-27T04:44:41.692Z,14.25
2018-12-27T04:45:20.860Z,14.13
2018-12-27T04:45:59.733Z,13.65
2018-12-27T04:46:38.978Z,12.50
2018-12-27T04:47:18.095Z,13.13
2018-12-27T04:47:56.820Z,12.88
2018-12-27T04:48:35.560Z,12.97
2018-12-27T04:49:14.277Z,13.58
2018-12-27T04:49:53.054Z,13.80
2018-12-27T04:50:32.351Z,14.43
2018-12-27T04:51:11.010Z,13.68
2018-12-27T04:51:50.274Z,13.10
2018-12-27T04:52:29.544Z,13.28
2018-12-27T04:53:09.897Z,12.55
2018-12-27T04:53:52.858Z,12.07
2018-12-27T04:54:34.606Z,13.80
2018-12-27T04:55:13.015Z,13.00
2018-12-27T04:55:51.953Z,13.45
2018-12-27T04:56:31.207Z,11.90
2018-12-27T04:57:10.676Z,12.73
2018-12-27T04:57:50.014Z,11.85
2018-12-27T04:58:29.217Z,11.35
2018-12-27T04:59:08.597Z,10.58
2018-12-27T04:59:48.127Z,10.35
2018-12-27T05:00:29.706Z,11.35
2018-12-27T05:01:09.163Z,10.60
2018-12-27T05:01:48.063Z,10.13
2018-12-27T05:02:28.685Z,9.93
2018-12-27T05:03:08.090Z,10.13
2018-12-27T05:03:46.875Z,8.60
2018-12-27T05:04:26.030Z,8.65
2018-12-27T05:05:06.106Z,8.43
2018-12-27T05:05:44.877Z,8.85
2018-12-27T05:06:23.847Z,8.88
2018-12-27T05:07:03.022Z,8.60
2018-12-27T05:07:42.336Z,8.03
2018-12-27T05:08:21.812Z,7.55
2018-12-27T05:09:03.445Z,8.20
2018-12-27T05:09:43.248Z,7.72
2018-12-27T05:10:22.739Z,6.85
2018-12-27T05:11:02.307Z,7.90
2018-12-27T05:11:41.484Z,7.60
2018-12-27T05:12:20.802Z,6.33
2018-12-27T05:13:00.288Z,7.00
2018-12-27T05:13:39.724Z,7.12
2018-12-27T05:14:18.400Z,7.00
2018-12-27T05:14:57.803Z,6.30
2018-12-27T05:15:37.871Z,6.60
2018-12-27T05:16:16.884Z,6.55
2018-12-27T05:16:55.764Z,6.47
2018-12-27T05:17:35.154Z,6.33
2018-12-27T05:18:14.046Z,6.15
2018-12-27T05:18:53.217Z,6.17
2018-12-27T05:19:32.253Z,6.08
2018-12-27T05:20:10.946Z,5.85
2018-12-27T05:20:50.274Z,5.70
2018-12-27T05:21:28.944Z,6.40
2018-12-27T05:22:09.291Z,6.22
2018-12-27T05:22:49.338Z,5.92
2018-12-27T05:23:29.278Z,5.37
2018-12-27T05:24:08.115Z,5.20
2018-12-27T05:24:47.315Z,5.47
2018-12-27T05:25:26.314Z,5.40
2018-12-27T05:26:05.332Z,5.30
2018-12-27T05:26:44.094Z,4.65
2018-12-27T05:27:25.253Z,4.65
2018-12-27T05:28:04.731Z,4.62
2018-12-27T05:28:43.923Z,5.00
2018-12-27T05:29:23.575Z,5.47
2018-12-27T05:30:02.862Z,5.35
2018-12-27T05:30:42.430Z,5.00
2018-12-27T05:31:21.904Z,4.85
2018-12-27T05:32:00.526Z,4.60
2018-12-27T05:32:39.288Z,5.40
2018-12-27T05:33:18.133Z,4.97
2018-12-27T05:33:56.877Z,5.00
2018-12-27T05:34:35.866Z,4.40
2018-12-27T05:35:14.911Z,4.30
2018-12-27T05:35:54.531Z,4.42
2018-12-27T05:36:33.919Z,4.55
2018-12-27T05:37:13.283Z,4.85
2018-12-27T05:37:52.470Z,5.22
2018-12-27T05:38:31.897Z,4.72
2018-12-27T05:39:12.688Z,4.30
2018-12-27T05:39:52.285Z,4.53
2018-12-27T05:40:32.109Z,4.47
2018-12-27T05:41:10.963Z,4.20
2018-12-27T05:41:50.956Z,4.12
2018-12-27T05:42:30.123Z,4.20
2018-12-27T05:43:08.887Z,4.65
2018-12-27T05:43:47.679Z,3.95
2018-12-27T05:44:26.857Z,4.03
2018-12-27T05:45:09.605Z,4.72
2018-12-27T05:45:48.315Z,4.45
2018-12-27T05:46:27.871Z,4.80
2018-12-27T05:47:06.883Z,4.53
2018-12-27T05:47:46.388Z,4.17
2018-12-27T05:48:25.647Z,4.22
2018-12-27T05:49:04.725Z,4.33
2018-12-27T05:49:46.906Z,4.58
2018-12-27T05:50:26.236Z,4.30
2018-12-27T05:51:05.372Z,4.50
2018-12-27T05:51:44.138Z,4.67
2018-12-27T05:52:22.791Z,4.00
2018-12-27T05:53:01.644Z,4.45
2018-12-27T05:53:40.387Z,4.33
2018-12-27T05:54:19.321Z,4.50
2018-12-27T05:54:58.085Z,4.12
2018-12-27T05:55:37.513Z,4.67
2018-12-27T05:56:18.975Z,4.15
2018-12-27T05:56:57.982Z,4.15
2018-12-27T05:57:37.297Z,4.08
2018-12-27T05:58:20.249Z,4.65
2018-12-27T05:58:58.944Z,4.60
2018-12-27T05:59:37.684Z,4.17
2018-12-27T06:00:17.412Z,4.95
2018-12-27T06:00:56.706Z,5.12
2018-12-27T06:01:36.104Z,4.20
2018-12-27T06:02:15.215Z,4.67
2018-12-27T06:03:12.778Z,4.90
2018-12-27T06:03:51.952Z,4.70
2018-12-27T06:04:33.947Z,5.00
2018-12-27T06:05:11.416Z,5.00
2018-12-27T06:05:50.260Z,4.55
2018-12-27T06:06:29.286Z,4.55
2018-12-27T06:07:08.391Z,4.60
2018-12-27T06:07:50.056Z,4.47
2018-12-27T06:08:28.816Z,4.60
2018-12-27T06:09:08.240Z,4.75
2018-12-27T06:09:47.519Z,5.08
2018-12-27T06:10:26.392Z,4.22
2018-12-27T06:11:05.686Z,4.58
2018-12-27T06:11:45.069Z,4.55
2018-12-27T06:12:23.827Z,6.55
2018-12-27T06:13:03.120Z,7.55
2018-12-27T06:13:41.894Z,7.60
2018-12-27T06:14:21.536Z,7.50
2018-12-27T06:15:00.372Z,7.35
2018-12-27T06:15:39.419Z,7.20
2018-12-27T06:16:18.712Z,7.13
2018-12-27T06:16:57.584Z,11.40
2018-12-27T06:17:36.853Z,11.05
2018-12-27T06:18:16.663Z,11.73
2018-12-27T06:18:57.884Z,11.33
2018-12-27T06:19:37.253Z,13.43
2018-12-27T06:20:16.395Z,13.72
2018-12-27T06:20:55.578Z,13.95
2018-12-27T06:21:37.787Z,13.30
2018-12-27T06:22:16.616Z,14.80
2018-12-27T06:22:55.468Z,14.60
2018-12-27T06:23:34.996Z,14.63
2018-12-27T06:24:14.397Z,15.38
2018-12-27T06:24:53.203Z,15.40
2018-12-27T06:25:32.573Z,16.07
2018-12-27T06:26:12.837Z,16.17
2018-12-27T06:26:52.127Z,15.48
2018-12-27T06:27:31.557Z,17.65
2018-12-27T06:28:11.065Z,18.23
2018-12-27T06:28:52.113Z,18.27
2018-12-27T06:29:32.956Z,18.62
2018-12-27T06:30:12.206Z,18.98
2018-12-27T06:30:51.384Z,19.25
2018-12-27T06:31:30.698Z,20.68
2018-12-27T06:32:10.578Z,18.35
2018-12-27T06:32:49.619Z,20.53
2018-12-27T06:33:29.017Z,19.10
2018-12-27T06:34:08.510Z,17.17
2018-12-27T06:34:48.007Z,17.95
2018-12-27T06:35:27.981Z,19.40
2018-12-27T06:36:07.153Z,18.52
2018-12-27T06:36:46.744Z,18.80
2018-12-27T06:37:25.850Z,18.23
2018-12-27T06:38:05.335Z,16.50
2018-12-27T06:38:44.121Z,17.53
2018-12-27T06:39:23.512Z,17.80
2018-12-27T06:40:02.232Z,16.55
2018-12-27T06:40:41.005Z,16.00
2018-12-27T06:41:20.331Z,14.83
2018-12-27T06:41:59.702Z,15.05
2018-12-27T06:42:39.737Z,15.50
2018-12-27T06:43:19.664Z,15.95
2018-12-27T06:44:02.444Z,16.10
2018-12-27T06:44:44.171Z,14.37
2018-12-27T06:45:23.594Z,14.35
2018-12-27T06:46:05.344Z,15.15
2018-12-27T06:46:44.851Z,14.70
2018-12-27T06:47:24.298Z,14.40
2018-12-27T06:48:03.657Z,13.20
2018-12-27T06:48:42.812Z,13.60
2018-12-27T06:49:22.245Z,13.70
2018-12-27T06:50:01.227Z,14.50
2018-12-27T06:50:40.333Z,13.97
2018-12-27T06:51:19.686Z,12.85
2018-12-27T06:51:58.903Z,12.40
2018-12-27T06:52:38.418Z,12.65
2018-12-27T06:53:17.798Z,12.75
2018-12-27T06:53:56.563Z,11.85
2018-12-27T06:54:35.273Z,11.30
2018-12-27T06:55:14.005Z,11.00
2018-12-27T06:55:56.293Z,10.80
2018-12-27T06:56:34.965Z,10.70
2018-12-27T06:57:13.762Z,11.05
2018-12-27T06:57:52.802Z,10.43
2018-12-27T06:58:37.761Z,11.25
2018-12-27T06:59:12.774Z,10.65
2018-12-27T06:59:52.059Z,10.75
2018-12-27T07:00:30.960Z,10.43
2018-12-27T07:01:09.716Z,10.82
2018-12-27T07:01:48.355Z,11.50
2018-12-27T07:02:28.365Z,10.30
2018-12-27T07:03:10.648Z,11.25
2018-12-27T07:03:50.110Z,10.78
2018-12-27T07:04:29.271Z,10.80
2018-12-27T07:05:08.837Z,10.05
2018-12-27T07:05:51.232Z,10.50
2018-12-27T07:06:30.551Z,10.73
2018-12-27T07:07:09.885Z,10.98
2018-12-27T07:07:50.486Z,10.58
2018-12-27T07:08:29.578Z,10.32
2018-12-27T07:09:10.424Z,9.90
2018-12-27T07:09:49.240Z,10.93
2018-12-27T07:10:28.521Z,9.95
2018-12-27T07:11:07.193Z,10.10
2018-12-27T07:11:45.988Z,8.90
2018-12-27T07:12:24.751Z,9.35
2018-12-27T07:13:04.008Z,9.00
2018-12-27T07:13:45.810Z,9.70
2018-12-27T07:14:24.735Z,9.08
2018-12-27T07:15:03.465Z,9.75
2018-12-27T07:15:46.205Z,11.05
2018-12-27T07:16:24.981Z,9.33
2018-12-27T07:17:03.805Z,9.45
2018-12-27T07:17:42.854Z,9.73
2018-12-27T07:18:22.072Z,9.60
2018-12-27T07:19:01.292Z,10.30
2018-12-27T07:19:40.610Z,9.40
2018-12-27T07:20:20.051Z,9.83
2018-12-27T07:20:58.718Z,9.93
2018-12-27T07:21:37.724Z,9.93
2018-12-27T07:22:17.673Z,9.48
2018-12-27T07:22:57.078Z,10.50
2018-12-27T07:23:35.907Z,9.30
2018-12-27T07:24:15.239Z,9.95
2018-12-27T07:24:53.900Z,10.13
2018-12-27T07:25:33.135Z,9.73
2018-12-27T07:26:12.304Z,8.85
2018-12-27T07:26:51.504Z,9.55
2018-12-27T07:27:30.233Z,8.60
2018-12-27T07:28:11.819Z,9.70
2018-12-27T07:28:51.255Z,10.55
2018-12-27T07:29:30.587Z,9.05
2018-12-27T07:30:09.541Z,9.98
2018-12-27T07:30:51.652Z,9.85
2018-12-27T07:31:30.421Z,10.05
2018-12-27T07:32:09.199Z,10.28
2018-12-27T07:32:47.886Z,9.68
2018-12-27T07:33:26.718Z,9.90
2018-12-27T07:34:05.772Z,10.27
2018-12-27T07:34:45.046Z,9.45
2018-12-27T07:35:24.152Z,9.75
2018-12-27T07:36:21.384Z,9.33
2018-12-27T07:37:00.926Z,9.38
2018-12-27T07:37:39.965Z,9.10
2018-12-27T07:38:18.670Z,9.73
2018-12-27T07:38:57.483Z,9.70
2018-12-27T07:39:36.790Z,9.93
2018-12-27T07:40:15.735Z,10.07
2018-12-27T07:40:55.433Z,9.78
2018-12-27T07:41:35.138Z,10.60
2018-12-27T07:42:14.549Z,10.25
2018-12-27T07:42:53.885Z,10.60
2018-12-27T07:43:33.463Z,11.33
2018-12-27T07:44:12.763Z,10.50
2018-12-27T07:44:52.379Z,10.35
2018-12-27T07:45:31.782Z,8.80
2018-12-27T07:46:11.257Z,8.80
2018-12-27T07:46:50.155Z,9.50
2018-12-27T07:47:29.599Z,8.40
2018-12-27T07:48:08.511Z,8.03
2018-12-27T07:48:47.836Z,6.75
2018-12-27T07:49:26.782Z,6.45
2018-12-27T07:50:06.219Z,6.90
2018-12-27T07:50:45.770Z,7.00
2018-12-27T07:51:25.131Z,5.87
2018-12-27T07:52:04.286Z,6.37
2018-12-27T07:52:44.002Z,5.83
2018-12-27T07:53:23.486Z,5.33
2018-12-27T07:54:03.101Z,4.83
2018-12-27T07:54:42.153Z,5.30
2018-12-27T07:55:21.530Z,5.37
2018-12-27T07:56:00.353Z,5.10
2018-12-27T07:56:39.158Z,4.10
2018-12-27T07:57:18.349Z,4.00
2018-12-27T07:57:57.464Z,5.03
2018-12-27T07:58:36.640Z,4.70
2018-12-27T07:59:16.274Z,4.57
2018-12-27T07:59:55.633Z,4.22
2018-12-27T08:00:34.551Z,4.43
2018-12-27T08:01:13.566Z,4.15
2018-12-27T08:01:53.131Z,4.15
2018-12-27T08:02:32.026Z,4.10
2018-12-27T08:03:11.045Z,4.10
2018-12-27T08:03:50.264Z,4.10
2018-12-27T08:04:28.896Z,3.92
2018-12-27T08:05:08.590Z,4.00
2018-12-27T08:05:47.595Z,4.20
2018-12-27T08:06:29.029Z,4.40
2018-12-27T08:07:07.913Z,4.15
2018-12-27T08:07:47.565Z,4.05
2018-12-27T08:08:27.009Z,4.47
2018-12-27T08:09:07.641Z,4.05
2018-12-27T08:09:46.806Z,4.00
2018-12-27T08:10:25.789Z,4.90
2018-12-27T08:11:05.536Z,3.70
2018-12-27T08:11:45.201Z,3.80
2018-12-27T08:12:24.615Z,3.60
2018-12-27T08:13:03.876Z,4.22
2018-12-27T08:13:43.163Z,3.52
2018-12-27T08:14:22.608Z,3.65
2018-12-27T08:15:01.336Z,4.33
2018-12-27T08:15:40.022Z,4.10
2018-12-27T08:16:19.105Z,3.80
2018-12-27T08:17:01.139Z,3.50
2018-12-27T08:17:40.796Z,3.55
2018-12-27T08:18:20.384Z,3.60
2018-12-27T08:18:59.505Z,3.70
2018-12-27T08:19:38.245Z,3.52
2018-12-27T08:20:17.689Z,3.87
2018-12-27T08:20:56.940Z,3.57
2018-12-27T08:21:35.979Z,3.90
2018-12-27T08:22:15.359Z,3.85
2018-12-27T08:22:54.487Z,4.37
2018-12-27T08:23:33.183Z,3.85
2018-12-27T08:24:11.927Z,3.90
2018-12-27T08:24:50.556Z,3.87
2018-12-27T08:25:29.343Z,3.90
2018-12-27T08:26:08.496Z,4.08
2018-12-27T08:26:47.305Z,3.60
2018-12-27T08:27:26.555Z,4.15
2018-12-27T08:28:05.797Z,3.70
2018-12-27T08:28:46.013Z,4.07
2018-12-27T08:29:25.162Z,3.47
2018-12-27T08:30:03.753Z,3.60
2018-12-27T08:30:42.816Z,3.90
2018-12-27T08:31:21.398Z,3.90
2018-12-27T08:32:00.026Z,3.60
2018-12-27T08:32:39.410Z,3.60
2018-12-27T08:33:19.050Z,3.63
2018-12-27T08:34:00.116Z,4.10
2018-12-27T08:34:40.054Z,4.10
2018-12-27T08:35:19.749Z,4.03
2018-12-27T08:35:59.714Z,3.98